sensor_id;sensor_type;location;lat;lon;timestamp;P1;durP1;ratioP1;P2;durP2;ratioP2
4732;SDS011;2380;53.668;10.008;2023-04-24T00:00:32;10.00;;;7.00;;
4732;SDS011;2380;53.668;10.008;2023-04-24T00:03:04;12.40;;;7.47;;
4732;SDS011;2380;53.668;10.008;2023-04-24T00:05:35;11.90;;;7.67;;
4732;SDS011;2380;53.668;10.008;2023-04-24T00:08:06;11.50;;;8.10;;
4732;SDS011;2380;53.668;10.008;2023-04-24T00:10:36;11.07;;;7.90;;
4732;SDS011;2380;53.668;10.008;2023-04-24T00:13:05;14.07;;;7.40;;
4732;SDS011;2380;53.668;10.008;2023-04-24T00:15:35;11.03;;;7.93;;
4732;SDS011;2380;53.668;10.008;2023-04-24T00:18:07;9.60;;;6.90;;
4732;SDS011;2380;53.668;10.008;2023-04-24T00:20:37;9.77;;;7.10;;
4732;SDS011;2380;53.668;10.008;2023-04-24T00:23:07;11.70;;;8.10;;
4732;SDS011;2380;53.668;10.008;2023-04-24T00:25:36;11.33;;;8.20;;
4732;SDS011;2380;53.668;10.008;2023-04-24T00:28:06;9.43;;;6.73;;
4732;SDS011;2380;53.668;10.008;2023-04-24T00:30:35;12.57;;;7.60;;
4732;SDS011;2380;53.668;10.008;2023-04-24T00:33:08;10.53;;;7.60;;
4732;SDS011;2380;53.668;10.008;2023-04-24T00:35:37;9.40;;;7.40;;
4732;SDS011;2380;53.668;10.008;2023-04-24T00:38:07;11.10;;;8.00;;
4732;SDS011;2380;53.668;10.008;2023-04-24T00:40:36;11.67;;;7.90;;
4732;SDS011;2380;53.668;10.008;2023-04-24T00:43:06;13.10;;;7.67;;
4732;SDS011;2380;53.668;10.008;2023-04-24T00:45:36;13.10;;;9.27;;
4732;SDS011;2380;53.668;10.008;2023-04-24T00:48:08;13.83;;;8.73;;
4732;SDS011;2380;53.668;10.008;2023-04-24T00:50:38;11.93;;;7.47;;
4732;SDS011;2380;53.668;10.008;2023-04-24T00:53:08;30.30;;;16.83;;
4732;SDS011;2380;53.668;10.008;2023-04-24T00:55:38;18.10;;;10.50;;
4732;SDS011;2380;53.668;10.008;2023-04-24T00:58:07;9.23;;;7.50;;
4732;SDS011;2380;53.668;10.008;2023-04-24T01:00:37;11.57;;;7.67;;
4732;SDS011;2380;53.668;10.008;2023-04-24T01:03:10;11.03;;;7.63;;
4732;SDS011;2380;53.668;10.008;2023-04-24T01:05:40;11.93;;;8.00;;
4732;SDS011;2380;53.668;10.008;2023-04-24T01:08:10;11.13;;;7.53;;
4732;SDS011;2380;53.668;10.008;2023-04-24T01:10:40;12.30;;;9.10;;
4732;SDS011;2380;53.668;10.008;2023-04-24T01:13:10;15.90;;;8.73;;
4732;SDS011;2380;53.668;10.008;2023-04-24T01:15:40;10.80;;;7.90;;
4732;SDS011;2380;53.668;10.008;2023-04-24T01:18:12;13.60;;;8.03;;
4732;SDS011;2380;53.668;10.008;2023-04-24T01:20:43;13.30;;;8.60;;
4732;SDS011;2380;53.668;10.008;2023-04-24T01:23:17;11.73;;;8.47;;
4732;SDS011;2380;53.668;10.008;2023-04-24T01:25:48;11.90;;;7.93;;
4732;SDS011;2380;53.668;10.008;2023-04-24T01:28:18;13.40;;;8.33;;
4732;SDS011;2380;53.668;10.008;2023-04-24T01:30:48;9.23;;;7.27;;
4732;SDS011;2380;53.668;10.008;2023-04-24T01:33:18;12.03;;;7.97;;
4732;SDS011;2380;53.668;10.008;2023-04-24T01:35:50;11.07;;;7.87;;
4732;SDS011;2380;53.668;10.008;2023-04-24T01:38:22;12.40;;;8.07;;
4732;SDS011;2380;53.668;10.008;2023-04-24T01:40:52;11.33;;;8.53;;
4732;SDS011;2380;53.668;10.008;2023-04-24T01:43:22;12.03;;;7.43;;
4732;SDS011;2380;53.668;10.008;2023-04-24T01:45:53;12.80;;;7.70;;
4732;SDS011;2380;53.668;10.008;2023-04-24T01:48:22;9.13;;;6.70;;
4732;SDS011;2380;53.668;10.008;2023-04-24T01:50:52;11.67;;;6.90;;
4732;SDS011;2380;53.668;10.008;2023-04-24T01:53:24;10.40;;;6.80;;
4732;SDS011;2380;53.668;10.008;2023-04-24T01:55:53;9.30;;;6.93;;
4732;SDS011;2380;53.668;10.008;2023-04-24T01:58:23;9.90;;;7.10;;
4732;SDS011;2380;53.668;10.008;2023-04-24T02:00:53;8.43;;;6.40;;
4732;SDS011;2380;53.668;10.008;2023-04-24T02:03:25;12.87;;;6.50;;
4732;SDS011;2380;53.668;10.008;2023-04-24T02:05:55;6.53;;;5.37;;
4732;SDS011;2380;53.668;10.008;2023-04-24T02:08:27;6.50;;;5.33;;
4732;SDS011;2380;53.668;10.008;2023-04-24T02:10:57;8.07;;;5.27;;
4732;SDS011;2380;53.668;10.008;2023-04-24T02:13:28;8.10;;;4.37;;
4732;SDS011;2380;53.668;10.008;2023-04-24T02:15:58;11.00;;;4.43;;
4732;SDS011;2380;53.668;10.008;2023-04-24T02:18:27;5.90;;;4.00;;
4732;SDS011;2380;53.668;10.008;2023-04-24T02:20:57;5.10;;;3.87;;
4732;SDS011;2380;53.668;10.008;2023-04-24T02:23:29;8.70;;;4.70;;
4732;SDS011;2380;53.668;10.008;2023-04-24T02:25:59;9.40;;;4.70;;
4732;SDS011;2380;53.668;10.008;2023-04-24T02:28:28;4.50;;;2.87;;
4732;SDS011;2380;53.668;10.008;2023-04-24T02:30:58;7.20;;;3.20;;
4732;SDS011;2380;53.668;10.008;2023-04-24T02:33:27;4.67;;;2.97;;
4732;SDS011;2380;53.668;10.008;2023-04-24T02:35:57;5.20;;;3.10;;
4732;SDS011;2380;53.668;10.008;2023-04-24T02:38:29;4.03;;;2.63;;
4732;SDS011;2380;53.668;10.008;2023-04-24T02:40:59;3.80;;;2.07;;
4732;SDS011;2380;53.668;10.008;2023-04-24T02:43:32;4.03;;;2.37;;
4732;SDS011;2380;53.668;10.008;2023-04-24T02:46:02;3.40;;;2.20;;
4732;SDS011;2380;53.668;10.008;2023-04-24T02:48:32;3.63;;;2.30;;
4732;SDS011;2380;53.668;10.008;2023-04-24T02:51:02;3.17;;;2.37;;
4732;SDS011;2380;53.668;10.008;2023-04-24T02:53:35;5.77;;;3.00;;
4732;SDS011;2380;53.668;10.008;2023-04-24T02:56:05;6.30;;;3.20;;
4732;SDS011;2380;53.668;10.008;2023-04-24T02:58:35;3.40;;;2.50;;
4732;SDS011;2380;53.668;10.008;2023-04-24T03:01:04;5.90;;;3.20;;
4732;SDS011;2380;53.668;10.008;2023-04-24T03:03:34;3.70;;;3.00;;
4732;SDS011;2380;53.668;10.008;2023-04-24T03:06:04;5.77;;;2.93;;
4732;SDS011;2380;53.668;10.008;2023-04-24T03:08:36;4.30;;;3.17;;
4732;SDS011;2380;53.668;10.008;2023-04-24T03:11:06;4.47;;;3.30;;
4732;SDS011;2380;53.668;10.008;2023-04-24T03:13:36;4.10;;;3.20;;
4732;SDS011;2380;53.668;10.008;2023-04-24T03:16:05;6.03;;;3.33;;
4732;SDS011;2380;53.668;10.008;2023-04-24T03:18:35;6.00;;;3.80;;
4732;SDS011;2380;53.668;10.008;2023-04-24T03:21:04;5.60;;;4.00;;
4732;SDS011;2380;53.668;10.008;2023-04-24T03:23:36;3.50;;;2.30;;
4732;SDS011;2380;53.668;10.008;2023-04-24T03:26:06;3.97;;;3.30;;
4732;SDS011;2380;53.668;10.008;2023-04-24T03:28:36;4.67;;;3.00;;
4732;SDS011;2380;53.668;10.008;2023-04-24T03:31:06;4.80;;;2.30;;
4732;SDS011;2380;53.668;10.008;2023-04-24T03:33:35;4.43;;;2.80;;
4732;SDS011;2380;53.668;10.008;2023-04-24T03:36:08;5.13;;;2.87;;
4732;SDS011;2380;53.668;10.008;2023-04-24T03:38:42;3.97;;;2.57;;
4732;SDS011;2380;53.668;10.008;2023-04-24T03:41:11;3.70;;;2.47;;
4732;SDS011;2380;53.668;10.008;2023-04-24T03:43:41;3.73;;;2.20;;
4732;SDS011;2380;53.668;10.008;2023-04-24T03:46:10;5.60;;;2.43;;
4732;SDS011;2380;53.668;10.008;2023-04-24T03:48:40;3.87;;;2.80;;
4732;SDS011;2380;53.668;10.008;2023-04-24T03:51:09;4.43;;;2.60;;
4732;SDS011;2380;53.668;10.008;2023-04-24T03:53:42;7.33;;;2.97;;
4732;SDS011;2380;53.668;10.008;2023-04-24T03:56:11;5.13;;;2.40;;
4732;SDS011;2380;53.668;10.008;2023-04-24T03:58:41;3.20;;;2.23;;
4732;SDS011;2380;53.668;10.008;2023-04-24T04:01:11;4.23;;;2.40;;
4732;SDS011;2380;53.668;10.008;2023-04-24T04:03:42;5.90;;;3.10;;
4732;SDS011;2380;53.668;10.008;2023-04-24T04:06:12;4.57;;;2.27;;
4732;SDS011;2380;53.668;10.008;2023-04-24T04:08:44;5.00;;;2.70;;
4732;SDS011;2380;53.668;10.008;2023-04-24T04:11:14;5.93;;;2.90;;
4732;SDS011;2380;53.668;10.008;2023-04-24T04:13:43;4.50;;;2.73;;
4732;SDS011;2380;53.668;10.008;2023-04-24T04:16:14;5.80;;;3.07;;
4732;SDS011;2380;53.668;10.008;2023-04-24T04:18:44;6.07;;;2.50;;
4732;SDS011;2380;53.668;10.008;2023-04-24T04:21:14;3.60;;;1.63;;
4732;SDS011;2380;53.668;10.008;2023-04-24T04:23:46;4.17;;;2.50;;
4732;SDS011;2380;53.668;10.008;2023-04-24T04:26:15;4.20;;;2.40;;
4732;SDS011;2380;53.668;10.008;2023-04-24T04:28:45;5.70;;;1.97;;
4732;SDS011;2380;53.668;10.008;2023-04-24T04:31:15;3.90;;;2.10;;
4732;SDS011;2380;53.668;10.008;2023-04-24T04:33:45;3.57;;;2.00;;
4732;SDS011;2380;53.668;10.008;2023-04-24T04:36:14;3.83;;;2.03;;
4732;SDS011;2380;53.668;10.008;2023-04-24T04:38:47;4.23;;;1.90;;
4732;SDS011;2380;53.668;10.008;2023-04-24T04:41:17;5.97;;;1.90;;
4732;SDS011;2380;53.668;10.008;2023-04-24T04:43:46;6.93;;;2.57;;
4732;SDS011;2380;53.668;10.008;2023-04-24T04:46:16;5.93;;;1.97;;
4732;SDS011;2380;53.668;10.008;2023-04-24T04:48:45;3.20;;;1.67;;
4732;SDS011;2380;53.668;10.008;2023-04-24T04:51:15;3.10;;;1.90;;
4732;SDS011;2380;53.668;10.008;2023-04-24T04:53:47;3.10;;;1.70;;
4732;SDS011;2380;53.668;10.008;2023-04-24T04:56:17;3.07;;;1.60;;
4732;SDS011;2380;53.668;10.008;2023-04-24T04:58:47;3.30;;;1.57;;
4732;SDS011;2380;53.668;10.008;2023-04-24T05:01:16;3.10;;;1.70;;
4732;SDS011;2380;53.668;10.008;2023-04-24T05:03:46;2.77;;;1.40;;
4732;SDS011;2380;53.668;10.008;2023-04-24T05:06:16;4.70;;;2.07;;
4732;SDS011;2380;53.668;10.008;2023-04-24T05:08:52;4.03;;;1.97;;
4732;SDS011;2380;53.668;10.008;2023-04-24T05:11:23;3.60;;;1.50;;
4732;SDS011;2380;53.668;10.008;2023-04-24T05:13:53;3.03;;;1.77;;
4732;SDS011;2380;53.668;10.008;2023-04-24T05:16:23;4.70;;;2.10;;
4732;SDS011;2380;53.668;10.008;2023-04-24T05:18:52;4.13;;;1.80;;
4732;SDS011;2380;53.668;10.008;2023-04-24T05:21:22;3.73;;;1.70;;
4732;SDS011;2380;53.668;10.008;2023-04-24T05:23:54;7.47;;;1.50;;
4732;SDS011;2380;53.668;10.008;2023-04-24T05:26:24;2.93;;;1.87;;
4732;SDS011;2380;53.668;10.008;2023-04-24T05:28:53;6.93;;;2.17;;
4732;SDS011;2380;53.668;10.008;2023-04-24T05:31:23;3.60;;;1.87;;
4732;SDS011;2380;53.668;10.008;2023-04-24T05:33:53;3.23;;;1.73;;
4732;SDS011;2380;53.668;10.008;2023-04-24T05:36:22;3.20;;;1.77;;
4732;SDS011;2380;53.668;10.008;2023-04-24T05:38:56;3.00;;;1.50;;
4732;SDS011;2380;53.668;10.008;2023-04-24T05:41:25;22.77;;;6.33;;
4732;SDS011;2380;53.668;10.008;2023-04-24T05:43:55;11.50;;;3.80;;
4732;SDS011;2380;53.668;10.008;2023-04-24T05:46:26;5.83;;;2.40;;
4732;SDS011;2380;53.668;10.008;2023-04-24T05:48:55;3.20;;;2.10;;
4732;SDS011;2380;53.668;10.008;2023-04-24T05:51:25;3.40;;;1.80;;
4732;SDS011;2380;53.668;10.008;2023-04-24T05:53:57;4.60;;;1.60;;
4732;SDS011;2380;53.668;10.008;2023-04-24T05:56:27;3.13;;;1.63;;
4732;SDS011;2380;53.668;10.008;2023-04-24T05:58:57;2.63;;;1.67;;
4732;SDS011;2380;53.668;10.008;2023-04-24T06:01:26;3.70;;;1.80;;
4732;SDS011;2380;53.668;10.008;2023-04-24T06:03:57;8.77;;;2.80;;
4732;SDS011;2380;53.668;10.008;2023-04-24T06:06:27;4.63;;;2.23;;
4732;SDS011;2380;53.668;10.008;2023-04-24T06:09:00;3.13;;;1.77;;
4732;SDS011;2380;53.668;10.008;2023-04-24T06:11:30;6.20;;;2.13;;
4732;SDS011;2380;53.668;10.008;2023-04-24T06:13:59;3.63;;;1.57;;
4732;SDS011;2380;53.668;10.008;2023-04-24T06:16:29;3.13;;;1.40;;
4732;SDS011;2380;53.668;10.008;2023-04-24T06:18:59;4.37;;;1.80;;
4732;SDS011;2380;53.668;10.008;2023-04-24T06:21:29;3.70;;;1.80;;
4732;SDS011;2380;53.668;10.008;2023-04-24T06:24:01;3.73;;;1.80;;
4732;SDS011;2380;53.668;10.008;2023-04-24T06:26:31;4.30;;;1.90;;
4732;SDS011;2380;53.668;10.008;2023-04-24T06:29:00;5.50;;;1.67;;
4732;SDS011;2380;53.668;10.008;2023-04-24T06:31:30;3.20;;;1.57;;
4732;SDS011;2380;53.668;10.008;2023-04-24T06:34:03;5.27;;;2.50;;
4732;SDS011;2380;53.668;10.008;2023-04-24T06:36:36;2.77;;;1.50;;
4732;SDS011;2380;53.668;10.008;2023-04-24T06:39:08;2.70;;;1.33;;
4732;SDS011;2380;53.668;10.008;2023-04-24T06:41:38;3.97;;;1.20;;
4732;SDS011;2380;53.668;10.008;2023-04-24T06:44:09;7.27;;;2.87;;
4732;SDS011;2380;53.668;10.008;2023-04-24T06:46:38;9.00;;;3.43;;
4732;SDS011;2380;53.668;10.008;2023-04-24T06:49:08;7.93;;;3.27;;
4732;SDS011;2380;53.668;10.008;2023-04-24T06:51:38;10.53;;;2.47;;
4732;SDS011;2380;53.668;10.008;2023-04-24T06:54:10;7.57;;;2.60;;
4732;SDS011;2380;53.668;10.008;2023-04-24T06:56:40;4.13;;;1.80;;
4732;SDS011;2380;53.668;10.008;2023-04-24T06:59:12;3.47;;;1.90;;
4732;SDS011;2380;53.668;10.008;2023-04-24T07:01:41;4.80;;;2.50;;
4732;SDS011;2380;53.668;10.008;2023-04-24T07:04:11;13.90;;;4.10;;
4732;SDS011;2380;53.668;10.008;2023-04-24T07:06:42;5.80;;;1.70;;
4732;SDS011;2380;53.668;10.008;2023-04-24T07:09:14;4.27;;;1.80;;
4732;SDS011;2380;53.668;10.008;2023-04-24T07:11:45;7.43;;;2.50;;
4732;SDS011;2380;53.668;10.008;2023-04-24T07:14:15;6.83;;;2.87;;
4732;SDS011;2380;53.668;10.008;2023-04-24T07:16:44;9.00;;;2.00;;
4732;SDS011;2380;53.668;10.008;2023-04-24T07:19:14;4.30;;;2.30;;
4732;SDS011;2380;53.668;10.008;2023-04-24T07:21:44;7.73;;;3.00;;
4732;SDS011;2380;53.668;10.008;2023-04-24T07:24:16;3.00;;;1.97;;
4732;SDS011;2380;53.668;10.008;2023-04-24T07:26:48;3.50;;;2.00;;
4732;SDS011;2380;53.668;10.008;2023-04-24T07:29:18;4.63;;;2.43;;
4732;SDS011;2380;53.668;10.008;2023-04-24T07:31:47;6.60;;;3.17;;
4732;SDS011;2380;53.668;10.008;2023-04-24T07:34:17;6.60;;;3.43;;
4732;SDS011;2380;53.668;10.008;2023-04-24T07:36:47;7.43;;;2.80;;
4732;SDS011;2380;53.668;10.008;2023-04-24T07:39:19;6.33;;;3.60;;
4732;SDS011;2380;53.668;10.008;2023-04-24T07:41:49;3.90;;;2.40;;
4732;SDS011;2380;53.668;10.008;2023-04-24T07:44:18;4.40;;;3.00;;
4732;SDS011;2380;53.668;10.008;2023-04-24T07:46:48;5.90;;;3.47;;
4732;SDS011;2380;53.668;10.008;2023-04-24T07:49:17;6.60;;;3.50;;
4732;SDS011;2380;53.668;10.008;2023-04-24T07:51:47;4.70;;;2.50;;
4732;SDS011;2380;53.668;10.008;2023-04-24T07:54:21;4.80;;;2.67;;
4732;SDS011;2380;53.668;10.008;2023-04-24T07:56:51;5.30;;;3.10;;
4732;SDS011;2380;53.668;10.008;2023-04-24T07:59:20;4.13;;;2.40;;
4732;SDS011;2380;53.668;10.008;2023-04-24T08:01:52;5.57;;;2.40;;
4732;SDS011;2380;53.668;10.008;2023-04-24T08:04:22;5.63;;;3.07;;
4732;SDS011;2380;53.668;10.008;2023-04-24T08:06:52;5.30;;;3.03;;
4732;SDS011;2380;53.668;10.008;2023-04-24T08:09:24;7.00;;;2.97;;
4732;SDS011;2380;53.668;10.008;2023-04-24T08:11:54;5.57;;;3.10;;
4732;SDS011;2380;53.668;10.008;2023-04-24T08:14:23;6.30;;;3.17;;
4732;SDS011;2380;53.668;10.008;2023-04-24T08:16:53;5.87;;;3.90;;
4732;SDS011;2380;53.668;10.008;2023-04-24T08:19:25;4.70;;;2.60;;
4732;SDS011;2380;53.668;10.008;2023-04-24T08:21:57;5.00;;;2.60;;
4732;SDS011;2380;53.668;10.008;2023-04-24T08:24:30;5.07;;;2.50;;
4732;SDS011;2380;53.668;10.008;2023-04-24T08:26:59;5.17;;;3.37;;
4732;SDS011;2380;53.668;10.008;2023-04-24T08:29:29;4.50;;;2.90;;
4732;SDS011;2380;53.668;10.008;2023-04-24T08:31:58;5.03;;;2.80;;
4732;SDS011;2380;53.668;10.008;2023-04-24T08:34:28;7.03;;;3.67;;
4732;SDS011;2380;53.668;10.008;2023-04-24T08:36:58;4.70;;;3.00;;
4732;SDS011;2380;53.668;10.008;2023-04-24T08:39:30;31.97;;;9.37;;
4732;SDS011;2380;53.668;10.008;2023-04-24T08:41:59;6.50;;;3.67;;
4732;SDS011;2380;53.668;10.008;2023-04-24T08:44:34;6.60;;;3.90;;
4732;SDS011;2380;53.668;10.008;2023-04-24T08:47:05;8.90;;;4.40;;
4732;SDS011;2380;53.668;10.008;2023-04-24T08:49:36;6.83;;;3.93;;
4732;SDS011;2380;53.668;10.008;2023-04-24T08:52:06;6.90;;;4.50;;
4732;SDS011;2380;53.668;10.008;2023-04-24T08:54:42;10.33;;;5.87;;
4732;SDS011;2380;53.668;10.008;2023-04-24T08:57:13;7.97;;;5.03;;
4732;SDS011;2380;53.668;10.008;2023-04-24T08:59:43;5.67;;;4.20;;
4732;SDS011;2380;53.668;10.008;2023-04-24T09:02:13;8.40;;;5.47;;
4732;SDS011;2380;53.668;10.008;2023-04-24T09:04:43;8.77;;;4.90;;
4732;SDS011;2380;53.668;10.008;2023-04-24T09:07:14;7.10;;;4.03;;
4732;SDS011;2380;53.668;10.008;2023-04-24T09:09:46;8.40;;;5.27;;
4732;SDS011;2380;53.668;10.008;2023-04-24T09:12:17;10.00;;;5.70;;
4732;SDS011;2380;53.668;10.008;2023-04-24T09:14:47;11.33;;;5.50;;
4732;SDS011;2380;53.668;10.008;2023-04-24T09:17:17;7.83;;;3.77;;
4732;SDS011;2380;53.668;10.008;2023-04-24T09:22:18;8.30;;;5.67;;
4732;SDS011;2380;53.668;10.008;2023-04-24T09:24:56;10.87;;;5.57;;
4732;SDS011;2380;53.668;10.008;2023-04-24T09:27:29;9.70;;;5.60;;
4732;SDS011;2380;53.668;10.008;2023-04-24T09:29:58;8.00;;;4.80;;
4732;SDS011;2380;53.668;10.008;2023-04-24T09:32:28;8.47;;;6.10;;
4732;SDS011;2380;53.668;10.008;2023-04-24T09:35:05;11.60;;;6.07;;
4732;SDS011;2380;53.668;10.008;2023-04-24T09:37:36;9.87;;;4.40;;
4732;SDS011;2380;53.668;10.008;2023-04-24T09:40:11;8.43;;;5.73;;
4732;SDS011;2380;53.668;10.008;2023-04-24T09:42:43;8.13;;;5.67;;
4732;SDS011;2380;53.668;10.008;2023-04-24T09:45:13;7.87;;;5.40;;
4732;SDS011;2380;53.668;10.008;2023-04-24T09:47:43;7.97;;;5.17;;
4732;SDS011;2380;53.668;10.008;2023-04-24T09:50:13;8.60;;;5.80;;
4732;SDS011;2380;53.668;10.008;2023-04-24T09:52:46;10.30;;;6.10;;
4732;SDS011;2380;53.668;10.008;2023-04-24T09:55:19;6.93;;;3.67;;
4732;SDS011;2380;53.668;10.008;2023-04-24T09:57:50;9.60;;;5.10;;
4732;SDS011;2380;53.668;10.008;2023-04-24T10:00:24;9.67;;;6.10;;
4732;SDS011;2380;53.668;10.008;2023-04-24T10:02:55;10.33;;;6.90;;
4732;SDS011;2380;53.668;10.008;2023-04-24T10:05:27;7.97;;;5.80;;
4732;SDS011;2380;53.668;10.008;2023-04-24T10:07:59;10.80;;;4.73;;
4732;SDS011;2380;53.668;10.008;2023-04-24T10:10:33;9.30;;;6.37;;
4732;SDS011;2380;53.668;10.008;2023-04-24T10:13:04;11.13;;;4.97;;
4732;SDS011;2380;53.668;10.008;2023-04-24T10:15:34;7.57;;;3.93;;
4732;SDS011;2380;53.668;10.008;2023-04-24T10:18:04;8.30;;;5.03;;
4732;SDS011;2380;53.668;10.008;2023-04-24T10:20:35;9.47;;;6.73;;
4732;SDS011;2380;53.668;10.008;2023-04-24T10:23:05;6.60;;;3.23;;
4732;SDS011;2380;53.668;10.008;2023-04-24T10:25:38;11.23;;;5.70;;
4732;SDS011;2380;53.668;10.008;2023-04-24T10:28:08;9.63;;;6.27;;
4732;SDS011;2380;53.668;10.008;2023-04-24T10:30:38;10.87;;;6.93;;
4732;SDS011;2380;53.668;10.008;2023-04-24T10:33:12;13.00;;;7.10;;
4732;SDS011;2380;53.668;10.008;2023-04-24T10:35:42;12.90;;;7.20;;
4732;SDS011;2380;53.668;10.008;2023-04-24T10:38:16;11.83;;;7.50;;
4732;SDS011;2380;53.668;10.008;2023-04-24T10:40:50;10.17;;;4.53;;
4732;SDS011;2380;53.668;10.008;2023-04-24T10:43:20;11.00;;;5.47;;
4732;SDS011;2380;53.668;10.008;2023-04-24T10:48:41;13.53;;;7.20;;
4732;SDS011;2380;53.668;10.008;2023-04-24T10:51:11;13.53;;;7.17;;
4732;SDS011;2380;53.668;10.008;2023-04-24T10:53:42;16.17;;;7.50;;
4732;SDS011;2380;53.668;10.008;2023-04-24T10:56:15;19.00;;;8.10;;
4732;SDS011;2380;53.668;10.008;2023-04-24T10:58:49;14.90;;;8.93;;
4732;SDS011;2380;53.668;10.008;2023-04-24T11:01:25;13.33;;;7.60;;
4732;SDS011;2380;53.668;10.008;2023-04-24T11:03:57;15.80;;;8.83;;
4732;SDS011;2380;53.668;10.008;2023-04-24T11:06:29;11.20;;;5.77;;
4732;SDS011;2380;53.668;10.008;2023-04-24T11:09:02;22.03;;;9.23;;
4732;SDS011;2380;53.668;10.008;2023-04-24T11:11:36;15.70;;;6.37;;
4732;SDS011;2380;53.668;10.008;2023-04-24T11:14:07;13.83;;;8.57;;
4732;SDS011;2380;53.668;10.008;2023-04-24T11:16:43;14.80;;;8.30;;
4732;SDS011;2380;53.668;10.008;2023-04-24T11:19:23;13.10;;;6.80;;
4732;SDS011;2380;53.668;10.008;2023-04-24T11:21:58;7.73;;;4.80;;
4732;SDS011;2380;53.668;10.008;2023-04-24T11:24:30;8.93;;;5.83;;
4732;SDS011;2380;53.668;10.008;2023-04-24T11:27:14;16.40;;;8.10;;
4732;SDS011;2380;53.668;10.008;2023-04-24T11:29:46;12.43;;;7.47;;
4732;SDS011;2380;53.668;10.008;2023-04-24T11:32:18;15.70;;;8.53;;
4732;SDS011;2380;53.668;10.008;2023-04-24T11:34:58;11.30;;;6.50;;
4732;SDS011;2380;53.668;10.008;2023-04-24T11:37:29;13.27;;;7.97;;
4732;SDS011;2380;53.668;10.008;2023-04-24T11:40:04;13.10;;;7.10;;
4732;SDS011;2380;53.668;10.008;2023-04-24T11:42:38;10.00;;;5.40;;
4732;SDS011;2380;53.668;10.008;2023-04-24T11:45:08;11.97;;;6.90;;
4732;SDS011;2380;53.668;10.008;2023-04-24T11:47:39;11.77;;;6.80;;
4732;SDS011;2380;53.668;10.008;2023-04-24T11:50:10;9.47;;;5.73;;
4732;SDS011;2380;53.668;10.008;2023-04-24T11:52:41;12.63;;;6.83;;
4732;SDS011;2380;53.668;10.008;2023-04-24T11:55:22;14.90;;;8.03;;
4732;SDS011;2380;53.668;10.008;2023-04-24T11:57:56;13.07;;;7.73;;
4732;SDS011;2380;53.668;10.008;2023-04-24T12:00:28;16.00;;;9.00;;
4732;SDS011;2380;53.668;10.008;2023-04-24T12:03:03;15.20;;;8.47;;
4732;SDS011;2380;53.668;10.008;2023-04-24T12:05:35;13.23;;;8.90;;
4732;SDS011;2380;53.668;10.008;2023-04-24T12:08:05;12.47;;;6.80;;
4732;SDS011;2380;53.668;10.008;2023-04-24T12:10:35;13.60;;;6.87;;
4732;SDS011;2380;53.668;10.008;2023-04-24T12:13:09;12.37;;;6.27;;
4732;SDS011;2380;53.668;10.008;2023-04-24T12:15:39;11.83;;;6.03;;
4732;SDS011;2380;53.668;10.008;2023-04-24T12:18:11;12.17;;;5.90;;
4732;SDS011;2380;53.668;10.008;2023-04-24T12:20:43;11.07;;;6.90;;
4732;SDS011;2380;53.668;10.008;2023-04-24T12:23:13;12.93;;;7.40;;
4732;SDS011;2380;53.668;10.008;2023-04-24T12:25:43;14.77;;;6.40;;
4732;SDS011;2380;53.668;10.008;2023-04-24T12:28:16;9.97;;;6.10;;
4732;SDS011;2380;53.668;10.008;2023-04-24T12:30:46;10.40;;;7.20;;
4732;SDS011;2380;53.668;10.008;2023-04-24T12:33:17;11.40;;;4.30;;
4732;SDS011;2380;53.668;10.008;2023-04-24T12:35:48;11.00;;;6.73;;
4732;SDS011;2380;53.668;10.008;2023-04-24T12:38:21;11.50;;;6.40;;
4732;SDS011;2380;53.668;10.008;2023-04-24T12:41:01;10.43;;;6.03;;
4732;SDS011;2380;53.668;10.008;2023-04-24T12:43:34;10.80;;;6.90;;
4732;SDS011;2380;53.668;10.008;2023-04-24T12:46:04;10.13;;;5.57;;
4732;SDS011;2380;53.668;10.008;2023-04-24T12:48:37;11.47;;;7.40;;
4732;SDS011;2380;53.668;10.008;2023-04-24T12:51:07;11.40;;;5.60;;
4732;SDS011;2380;53.668;10.008;2023-04-24T12:53:37;12.70;;;4.87;;
4732;SDS011;2380;53.668;10.008;2023-04-24T12:56:07;10.67;;;7.03;;
4732;SDS011;2380;53.668;10.008;2023-04-24T12:58:39;13.27;;;6.00;;
4732;SDS011;2380;53.668;10.008;2023-04-24T13:01:09;18.70;;;8.50;;
4732;SDS011;2380;53.668;10.008;2023-04-24T13:03:39;11.07;;;6.47;;
4732;SDS011;2380;53.668;10.008;2023-04-24T13:06:09;14.07;;;7.03;;
4732;SDS011;2380;53.668;10.008;2023-04-24T13:08:39;11.70;;;5.20;;
4732;SDS011;2380;53.668;10.008;2023-04-24T13:11:08;8.80;;;4.97;;
4732;SDS011;2380;53.668;10.008;2023-04-24T13:13:41;14.70;;;7.50;;
4732;SDS011;2380;53.668;10.008;2023-04-24T13:16:10;8.77;;;5.80;;
4732;SDS011;2380;53.668;10.008;2023-04-24T13:18:40;16.50;;;8.00;;
4732;SDS011;2380;53.668;10.008;2023-04-24T13:21:09;11.27;;;7.20;;
4732;SDS011;2380;53.668;10.008;2023-04-24T13:23:39;10.00;;;6.17;;
4732;SDS011;2380;53.668;10.008;2023-04-24T13:26:08;8.80;;;4.60;;
4732;SDS011;2380;53.668;10.008;2023-04-24T13:28:41;9.00;;;5.80;;
4732;SDS011;2380;53.668;10.008;2023-04-24T13:31:10;8.10;;;5.47;;
4732;SDS011;2380;53.668;10.008;2023-04-24T13:33:40;7.93;;;4.10;;
4732;SDS011;2380;53.668;10.008;2023-04-24T13:36:10;9.03;;;5.40;;
4732;SDS011;2380;53.668;10.008;2023-04-24T13:38:39;9.53;;;5.30;;
4732;SDS011;2380;53.668;10.008;2023-04-24T13:41:09;11.17;;;5.90;;
4732;SDS011;2380;53.668;10.008;2023-04-24T13:43:41;10.17;;;5.70;;
4732;SDS011;2380;53.668;10.008;2023-04-24T13:46:11;7.93;;;5.00;;
4732;SDS011;2380;53.668;10.008;2023-04-24T13:48:41;10.27;;;6.00;;
4732;SDS011;2380;53.668;10.008;2023-04-24T13:51:10;7.73;;;4.80;;
4732;SDS011;2380;53.668;10.008;2023-04-24T13:53:40;8.70;;;6.03;;
4732;SDS011;2380;53.668;10.008;2023-04-24T13:56:09;8.27;;;5.20;;
4732;SDS011;2380;53.668;10.008;2023-04-24T13:58:43;11.07;;;6.97;;
4732;SDS011;2380;53.668;10.008;2023-04-24T14:01:12;9.90;;;6.00;;
4732;SDS011;2380;53.668;10.008;2023-04-24T14:03:42;8.13;;;4.67;;
4732;SDS011;2380;53.668;10.008;2023-04-24T14:06:13;11.00;;;6.37;;
4732;SDS011;2380;53.668;10.008;2023-04-24T14:08:42;16.50;;;8.30;;
4732;SDS011;2380;53.668;10.008;2023-04-24T14:11:12;14.30;;;7.60;;
4732;SDS011;2380;53.668;10.008;2023-04-24T14:13:44;16.70;;;7.27;;
4732;SDS011;2380;53.668;10.008;2023-04-24T14:16:14;12.17;;;6.87;;
4732;SDS011;2380;53.668;10.008;2023-04-24T14:18:44;11.30;;;6.37;;
4732;SDS011;2380;53.668;10.008;2023-04-24T14:21:13;10.00;;;6.03;;
4732;SDS011;2380;53.668;10.008;2023-04-24T14:23:43;11.57;;;6.37;;
4732;SDS011;2380;53.668;10.008;2023-04-24T14:26:12;9.77;;;6.73;;
4732;SDS011;2380;53.668;10.008;2023-04-24T14:28:45;9.13;;;6.07;;
4732;SDS011;2380;53.668;10.008;2023-04-24T14:31:16;6.93;;;3.87;;
4732;SDS011;2380;53.668;10.008;2023-04-24T14:33:45;9.80;;;4.57;;
4732;SDS011;2380;53.668;10.008;2023-04-24T14:36:15;9.43;;;5.60;;
4732;SDS011;2380;53.668;10.008;2023-04-24T14:38:45;17.03;;;7.20;;
4732;SDS011;2380;53.668;10.008;2023-04-24T14:41:14;10.87;;;7.20;;
4732;SDS011;2380;53.668;10.008;2023-04-24T14:43:47;17.83;;;9.37;;
4732;SDS011;2380;53.668;10.008;2023-04-24T14:46:16;16.57;;;9.80;;
4732;SDS011;2380;53.668;10.008;2023-04-24T14:48:46;14.80;;;8.40;;
4732;SDS011;2380;53.668;10.008;2023-04-24T14:51:16;18.20;;;10.40;;
4732;SDS011;2380;53.668;10.008;2023-04-24T14:53:45;20.77;;;11.90;;
4732;SDS011;2380;53.668;10.008;2023-04-24T14:56:15;13.30;;;6.10;;
4732;SDS011;2380;53.668;10.008;2023-04-24T14:58:47;19.87;;;11.37;;
4732;SDS011;2380;53.668;10.008;2023-04-24T15:01:17;18.00;;;11.60;;
4732;SDS011;2380;53.668;10.008;2023-04-24T15:03:47;20.07;;;12.40;;
4732;SDS011;2380;53.668;10.008;2023-04-24T15:06:18;22.63;;;12.70;;
4732;SDS011;2380;53.668;10.008;2023-04-24T15:08:47;22.30;;;13.53;;
4732;SDS011;2380;53.668;10.008;2023-04-24T15:11:17;23.53;;;12.57;;
4732;SDS011;2380;53.668;10.008;2023-04-24T15:13:49;21.10;;;13.33;;
4732;SDS011;2380;53.668;10.008;2023-04-24T15:16:19;21.27;;;12.13;;
4732;SDS011;2380;53.668;10.008;2023-04-24T15:18:49;13.73;;;7.97;;
4732;SDS011;2380;53.668;10.008;2023-04-24T15:21:18;18.63;;;11.63;;